Time;durP1;ratioP1;P1;durP2;ratioP2;P2;SDS_P1;SDS_P2;PMS_P1;PMS_P2;Temp;Humidity;BMP_temperature;BMP_pressure;BME280_temperature;BME280_humidity;BME280_pressure;Samples;Min_cycle;Max_cycle;Signal;HPM_P1;HPM_P2
2024/02/08 00:01:16;;;;;;;17.48;5.22;;;6.30;99.90;;;;;;5095389;28;20228;-62
2024/02/08 00:03:43;;;;;;;12.30;3.95;;;6.30;99.90;;;;;;5093066;28;20123;-61
2024/02/08 00:06:10;;;;;;;16.08;4.00;;;6.30;99.90;;;;;;5099867;28;20435;-61
2024/02/08 00:08:37;;;;;;;18.30;4.43;;;6.30;99.90;;;;;;5099908;28;20067;-61
2024/02/08 00:11:06;;;;;;;11.70;3.65;;;6.30;99.90;;;;;;5091428;28;20534;-61
2024/02/08 00:13:34;;;;;;;13.73;4.30;;;6.30;99.90;;;;;;5095906;28;20047;-61
2024/02/08 00:16:01;;;;;;;13.93;5.32;;;6.30;99.90;;;;;;5103228;28;20135;-61
2024/02/08 00:18:28;;;;;;;26.38;4.35;;;6.30;99.90;;;;;;5097414;28;20052;-60
2024/02/08 00:20:55;;;;;;;25.60;5.40;;;6.30;99.90;;;;;;5089315;28;20143;-60
2024/02/08 00:23:22;;;;;;;11.88;3.95;;;6.30;99.90;;;;;;5096291;28;20040;-61
2024/02/08 00:25:50;;;;;;;17.73;4.30;;;6.30;99.90;;;;;;5093064;28;20113;-60
2024/02/08 00:28:17;;;;;;;15.25;3.95;;;6.30;99.90;;;;;;5095711;28;20503;-61
2024/02/08 00:30:45;;;;;;;13.57;3.63;;;6.30;99.90;;;;;;5091537;28;20497;-62
2024/02/08 00:33:12;;;;;;;20.85;5.95;;;6.30;99.90;;;;;;5101884;28;20135;-60
2024/02/08 00:35:39;;;;;;;17.52;5.18;;;6.30;99.90;;;;;;5093564;28;20146;-62
2024/02/08 00:38:06;;;;;;;18.58;5.03;;;6.30;99.90;;;;;;5103408;28;20044;-60
2024/02/08 00:40:33;;;;;;;16.48;5.22;;;6.30;99.90;;;;;;5104266;28;20043;-60
2024/02/08 00:43:05;;;;;;;21.08;5.28;;;6.20;99.90;;;;;;5100142;28;20048;-61
2024/02/08 00:45:33;;;;;;;22.67;4.78;;;6.30;99.90;;;;;;5102953;28;20495;-61
2024/02/08 00:48:01;;;;;;;16.15;5.75;;;6.30;99.90;;;;;;5099158;28;20419;-61
2024/02/08 00:50:28;;;;;;;26.38;6.07;;;6.30;99.90;;;;;;5095936;28;20053;-61
2024/02/08 00:52:54;;;;;;;20.95;7.03;;;6.30;99.90;;;;;;5096012;28;20051;-61
2024/02/08 00:55:21;;;;;;;23.83;6.65;;;6.30;99.90;;;;;;5091793;28;20462;-61
2024/02/08 00:57:48;;;;;;;25.38;6.53;;;6.30;99.90;;;;;;5095489;28;20075;-61
2024/02/08 01:00:16;;;;;;;20.92;6.00;;;6.20;99.90;;;;;;5094832;28;20512;-60
2024/02/08 01:02:45;;;;;;;23.25;6.78;;;6.20;99.90;;;;;;5098529;28;20059;-61
2024/02/08 01:05:12;;;;;;;21.00;5.38;;;6.20;99.90;;;;;;5102010;28;20056;-61
2024/02/08 01:07:39;;;;;;;23.35;6.13;;;6.10;99.90;;;;;;5099675;28;20055;-61
2024/02/08 01:10:07;;;;;;;24.23;5.57;;;6.20;99.90;;;;;;5093879;28;20201;-61
2024/02/08 01:12:34;;;;;;;14.90;5.13;;;6.20;99.90;;;;;;5100093;28;20846;-61
2024/02/08 01:15:04;;;;;;;19.33;5.30;;;6.20;99.90;;;;;;5094395;28;20075;-61
2024/02/08 01:17:32;;;;;;;16.50;7.18;;;6.20;99.90;;;;;;5103911;28;20083;-61
2024/02/08 01:20:00;;;;;;;15.18;5.03;;;6.20;99.90;;;;;;5097157;28;20048;-61
2024/02/08 01:22:28;;;;;;;23.48;5.28;;;6.20;99.90;;;;;;5094906;28;20128;-61
2024/02/08 01:24:56;;;;;;;19.25;6.07;;;6.10;99.90;;;;;;5088966;28;20219;-61
2024/02/08 01:27:23;;;;;;;25.00;5.35;;;6.10;99.90;;;;;;5090202;28;20113;-61
2024/02/08 01:29:50;;;;;;;28.38;4.88;;;6.20;99.90;;;;;;5093564;28;20123;-60
2024/02/08 01:32:19;;;;;;;14.43;5.00;;;6.20;99.90;;;;;;5089773;28;20211;-61
2024/02/08 01:34:45;;;;;;;22.45;5.63;;;6.20;99.90;;;;;;5091976;28;20055;-61
2024/02/08 01:37:14;;;;;;;20.27;6.50;;;6.20;99.90;;;;;;5098306;28;20075;-61
2024/02/08 01:39:42;;;;;;;19.35;7.72;;;6.20;99.90;;;;;;5089062;28;20400;-61
2024/02/08 01:42:12;;;;;;;23.92;7.80;;;6.20;99.90;;;;;;5099909;28;20122;-61
2024/02/08 01:44:46;;;;;;;19.70;6.47;;;6.20;99.90;;;;;;5095770;28;20508;-60
2024/02/08 01:47:13;;;;;;;;;;;6.20;99.90;;;;;;5093702;28;20065;-61
2024/02/08 01:49:40;;;;;;;26.83;6.90;;;6.20;99.90;;;;;;5091895;28;19957;-61
2024/02/08 01:52:09;;;;;;;20.88;6.38;;;6.20;99.90;;;;;;5099681;28;20055;-61
2024/02/08 01:54:36;;;;;;;25.25;7.82;;;6.20;99.90;;;;;;5097657;28;20044;-60
2024/02/08 01:57:03;;;;;;;17.17;6.28;;;6.20;99.90;;;;;;5091910;28;20055;-61
2024/02/08 01:59:31;;;;;;;20.40;6.05;;;6.30;99.90;;;;;;5071812;28;20044;-61
2024/02/08 02:02:01;;;;;;;21.35;5.93;;;6.30;99.90;;;;;;5094255;28;20048;-61
2024/02/08 02:04:30;;;;;;;16.45;5.13;;;6.30;99.90;;;;;;5101182;28;20043;-61
2024/02/08 02:07:00;;;;;;;21.02;6.35;;;6.30;99.90;;;;;;5099156;28;20062;-60
2024/02/08 02:09:30;;;;;;;15.55;5.60;;;6.30;99.90;;;;;;5097484;28;20096;-62
2024/02/08 02:12:10;;;;;;;23.05;6.60;;;6.30;99.90;;;;;;5096850;28;20417;-60
2024/02/08 02:14:38;;;;;;;32.45;5.97;;;6.30;99.90;;;;;;5107689;28;20169;-60
2024/02/08 02:17:12;;;;;;;18.92;5.57;;;6.30;99.90;;;;;;5098290;28;20091;-60
2024/02/08 02:19:40;;;;;;;26.05;6.50;;;6.30;99.90;;;;;;5102315;28;20120;-61
2024/02/08 02:22:08;;;;;;;18.85;5.80;;;6.30;99.90;;;;;;5099231;28;20051;-60
2024/02/08 02:24:40;;;;;;;19.13;5.63;;;6.30;99.90;;;;;;5082784;28;20043;-61
2024/02/08 02:27:08;;;;;;;21.85;4.78;;;6.30;99.90;;;;;;5101753;28;20490;-61
2024/02/08 02:29:36;;;;;;;18.08;5.20;;;6.20;99.90;;;;;;5084505;28;20035;-60
2024/02/08 02:32:10;;;;;;;19.77;4.93;;;6.30;99.90;;;;;;5099530;27;20039;-61
2024/02/08 02:34:38;;;;;;;13.73;4.30;;;6.30;99.90;;;;;;5091337;28;20046;-61
2024/02/08 02:37:07;;;;;;;20.55;5.38;;;6.30;99.90;;;;;;5088579;28;20066;-61
2024/02/08 02:39:34;;;;;;;21.48;5.20;;;6.30;99.90;;;;;;5107405;27;20066;-61
2024/02/08 02:42:01;;;;;;;19.35;6.43;;;6.40;99.90;;;;;;5101202;28;20048;-61
2024/02/08 02:44:27;;;;;;;24.63;4.60;;;6.30;99.90;;;;;;5099901;28;20184;-61
2024/02/08 02:46:56;;;;;;;17.17;5.40;;;6.30;99.90;;;;;;5094051;28;20070;-61
2024/02/08 02:49:24;;;;;;;21.52;4.97;;;6.30;99.90;;;;;;5099456;28;20637;-61
2024/02/08 02:51:52;;;;;;;14.98;4.22;;;6.20;99.90;;;;;;5104855;28;20116;-61
2024/02/08 02:54:22;;;;;;;15.20;3.90;;;6.30;99.90;;;;;;5106112;28;20048;-61
2024/02/08 02:56:50;;;;;;;19.30;4.85;;;6.20;99.90;;;;;;5089072;28;20036;-61
2024/02/08 02:59:17;;;;;;;22.23;5.05;;;6.20;99.90;;;;;;5101866;28;20143;-60
2024/02/08 03:01:49;;;;;;;14.10;4.32;;;6.20;99.90;;;;;;5105720;27;20046;-61
2024/02/08 03:04:16;;;;;;;18.50;5.13;;;6.20;99.90;;;;;;5093770;28;20052;-61
2024/02/08 03:06:45;;;;;;;15.68;4.47;;;6.20;99.90;;;;;;5103022;28;20095;-61
2024/02/08 03:09:15;;;;;;;15.00;5.43;;;6.20;99.90;;;;;;5100845;28;20067;-61
2024/02/08 03:11:45;;;;;;;30.45;4.35;;;6.20;99.90;;;;;;5106122;28;20417;-61
2024/02/08 03:14:11;;;;;;;15.95;4.45;;;6.20;99.90;;;;;;5098682;28;20039;-60
2024/02/08 03:16:41;;;;;;;22.40;5.22;;;6.20;99.90;;;;;;5104281;28;20105;-61
2024/02/08 03:19:08;;;;;;;13.27;3.60;;;6.20;99.90;;;;;;5097276;28;20824;-61
2024/02/08 03:21:35;;;;;;;17.92;5.72;;;6.20;99.90;;;;;;5097252;28;20075;-61
2024/02/08 03:24:08;;;;;;;14.13;4.28;;;6.20;99.90;;;;;;5094969;28;20108;-60
2024/02/08 03:26:45;;;;;;;17.70;4.50;;;6.20;99.90;;;;;;5099319;28;20070;-61
2024/02/08 03:29:11;;;;;;;15.82;4.38;;;6.20;99.90;;;;;;5103971;28;20047;-61
2024/02/08 03:31:46;;;;;;;20.05;4.57;;;6.20;99.90;;;;;;5096012;28;20041;-61
2024/02/08 03:34:19;;;;;;;19.33;4.35;;;6.20;99.90;;;;;;5098579;28;20826;-62
2024/02/08 03:36:46;;;;;;;18.52;4.40;;;6.20;99.90;;;;;;5091968;28;20054;-61
2024/02/08 03:39:24;;;;;;;16.10;3.85;;;6.20;99.90;;;;;;5095186;28;20051;-61
2024/02/08 03:41:59;;;;;;;19.23;4.93;;;6.20;99.90;;;;;;5102345;28;20050;-62
2024/02/08 03:44:29;;;;;;;14.55;4.47;;;6.20;99.90;;;;;;5090506;28;20063;-61
2024/02/08 03:47:04;;;;;;;12.52;4.13;;;6.20;99.90;;;;;;5107376;28;20047;-61
2024/02/08 03:49:32;;;;;;;17.63;4.25;;;6.20;99.90;;;;;;5104198;28;20142;-61
2024/02/08 03:51:59;;;;;;;19.30;5.50;;;6.20;99.90;;;;;;5105215;28;20503;-61
2024/02/08 03:54:30;;;;;;;19.65;5.60;;;6.10;99.90;;;;;;5101361;28;20488;-62
2024/02/08 03:57:01;;;;;;;18.60;5.15;;;6.10;99.90;;;;;;5098280;28;20050;-60
2024/02/08 03:59:28;;;;;;;15.77;5.40;;;6.10;99.90;;;;;;5102409;28;20469;-61
2024/02/08 04:02:03;;;;;;;15.27;5.43;;;6.10;99.90;;;;;;5100108;28;20485;-61
2024/02/08 04:04:50;;;;;;;20.30;5.68;;;6.10;99.90;;;;;;5101894;28;20089;-62
2024/02/08 04:07:21;;;;;;;19.70;5.38;;;6.10;99.90;;;;;;5104912;28;20050;-61
2024/02/08 04:10:10;;;;;;;18.17;5.00;;;6.10;99.90;;;;;;5104096;28;20050;-60
2024/02/08 04:54:02;;;;;;;16.95;5.90;;;5.90;99.90;;;;;;5094956;28;20090;-61
2024/02/08 04:56:29;;;;;;;17.70;6.32;;;5.90;99.90;;;;;;5099607;28;20230;-61
2024/02/08 04:58:58;;;;;;;15.48;6.47;;;5.80;99.90;;;;;;5103384;28;20320;-61
2024/02/08 05:01:45;;;;;;;25.65;6.28;;;5.80;99.90;;;;;;5102231;28;20051;-62
2024/02/08 05:04:12;;;;;;;17.48;6.68;;;5.90;99.90;;;;;;5110563;28;20050;-62
2024/02/08 05:06:39;;;;;;;22.17;6.47;;;5.90;99.90;;;;;;5111429;28;20071;-62
2024/02/08 05:09:07;;;;;;;22.08;9.38;;;5.90;99.90;;;;;;5106806;28;20048;-64
2024/02/08 05:11:36;;;;;;;14.95;6.82;;;5.90;99.90;;;;;;5098948;28;20058;-68
2024/02/08 05:14:04;;;;;;;22.40;7.82;;;5.80;99.90;;;;;;5108232;28;20096;-63
2024/02/08 05:16:32;;;;;;;24.45;7.00;;;5.80;99.90;;;;;;5105607;28;20040;-62
2024/02/08 05:18:59;;;;;;;24.40;8.27;;;5.80;99.90;;;;;;5110111;28;20062;-62
2024/02/08 05:21:31;;;;;;;19.08;7.82;;;5.70;99.90;;;;;;5106930;28;20040;-62
2024/02/08 05:23:58;;;;;;;22.42;8.98;;;5.70;99.90;;;;;;5106507;28;20075;-65
2024/02/08 05:26:25;;;;;;;25.58;9.00;;;5.70;99.90;;;;;;5112878;28;20123;-64
2024/02/08 05:28:57;;;;;;;22.65;9.48;;;5.70;99.90;;;;;;5102457;28;20050;-62
2024/02/08 05:31:27;;;;;;;17.85;9.30;;;5.70;99.90;;;;;;5107194;28;20039;-62
2024/02/08 05:33:56;;;;;;;21.65;9.70;;;5.60;99.90;;;;;;5100132;28;20070;-62
2024/02/08 05:36:24;;;;;;;26.52;11.98;;;5.60;99.90;;;;;;5096602;28;20131;-62
2024/02/08 05:38:56;;;;;;;32.55;11.02;;;5.60;99.90;;;;;;5102404;28;20044;-62
2024/02/08 05:41:23;;;;;;;23.73;11.55;;;5.60;99.90;;;;;;5106329;28;20043;-62
2024/02/08 05:43:51;;;;;;;23.40;10.18;;;5.60;99.90;;;;;;5106629;28;20272;-62
2024/02/08 05:46:25;;;;;;;21.23;10.85;;;5.60;99.90;;;;;;5101638;28;20059;-61
2024/02/08 05:48:53;;;;;;;19.85;11.80;;;5.60;99.90;;;;;;5103656;28;20047;-61
2024/02/08 05:51:22;;;;;;;30.75;13.68;;;5.60;99.90;;;;;;5104101;28;20051;-60
2024/02/08 05:53:49;;;;;;;26.60;11.20;;;5.60;99.90;;;;;;5106773;28;20551;-61
2024/02/08 05:56:21;;;;;;;27.15;13.02;;;5.60;99.90;;;;;;5100390;28;20039;-60
2024/02/08 05:58:51;;;;;;;20.88;11.07;;;5.60;99.90;;;;;;5101692;28;20080;-62
2024/02/08 06:01:22;;;;;;;22.33;11.48;;;5.60;99.90;;;;;;5100289;28;20135;-61
2024/02/08 06:03:50;;;;;;;28.55;12.27;;;5.60;99.90;;;;;;5106608;28;20040;-60
2024/02/08 06:06:26;;;;;;;25.73;11.20;;;5.60;99.90;;;;;;5110130;28;20043;-61
2024/02/08 06:08:56;;;;;;;20.70;10.32;;;5.50;99.90;;;;;;5103819;28;20142;-64
2024/02/08 06:11:23;;;;;;;23.55;9.68;;;5.60;99.90;;;;;;5100129;28;20142;-60
2024/02/08 06:13:59;;;;;;;24.20;10.50;;;5.60;99.90;;;;;;5101094;28;20044;-60
2024/02/08 06:16:26;;;;;;;21.45;10.30;;;5.70;99.90;;;;;;5101491;28;20051;-62
2024/02/08 06:18:57;;;;;;;19.08;11.75;;;5.70;99.90;;;;;;5102201;28;20111;-61
2024/02/08 06:21:39;;;;;;;15.98;9.00;;;5.70;99.90;;;;;;5100238;28;20044;-61
2024/02/08 06:26:55;;;;;;;23.25;10.10;;;5.70;99.90;;;;;;5107064;28;20043;-64
2024/02/08 06:29:26;;;;;;;14.48;9.05;;;5.70;99.90;;;;;;5110887;28;20082;-60
2024/02/08 06:32:02;;;;;;;14.43;8.68;;;5.70;99.90;;;;;;5103238;28;20051;-60
2024/02/08 06:34:47;;;;;;;16.90;8.90;;;5.70;99.90;;;;;;5103029;28;20047;-61
2024/02/08 06:37:26;;;;;;;15.73;7.80;;;5.70;99.90;;;;;;5099083;28;20040;-60
2024/02/08 06:39:56;;;;;;;11.18;6.78;;;5.70;99.90;;;;;;5100956;28;20508;-60
2024/02/08 06:43:26;;;;;;;10.82;7.47;;;5.70;99.90;;;;;;5102064;28;20088;-59
2024/02/08 07:38:00;;;;;;;11.07;6.47;;;5.70;99.90;;;;;;5100856;28;20062;-60
2024/02/08 07:40:30;;;;;;;12.30;6.55;;;5.70;99.90;;;;;;5105095;28;20124;-59
2024/02/08 07:43:34;;;;;;;11.15;5.78;;;5.70;99.90;;;;;;5101952;28;20097;-60
2024/02/08 07:46:03;;;;;;;10.93;5.13;;;5.70;99.90;;;;;;5097759;28;20074;-60
2024/02/08 07:48:43;;;;;;;9.20;5.32;;;5.70;99.90;;;;;;5099373;28;20376;-60
2024/02/08 07:51:15;;;;;;;8.98;6.50;;;5.70;99.90;;;;;;5095853;28;20039;-59
2024/02/08 07:53:50;;;;;;;6.97;4.63;;;5.70;99.90;;;;;;5102137;28;20686;-59
2024/02/08 07:58:55;;;;;;;8.27;5.18;;;5.70;99.90;;;;;;5100582;28;20057;-59
2024/02/08 08:01:32;;;;;;;7.55;5.35;;;5.70;99.90;;;;;;5105453;28;20043;-59
2024/02/08 08:04:00;;;;;;;6.95;4.68;;;5.70;99.90;;;;;;5096213;28;20047;-61
2024/02/08 08:06:34;;;;;;;7.40;4.13;;;5.70;99.90;;;;;;5099914;28;20053;-61
2024/02/08 08:09:18;;;;;;;7.15;4.00;;;5.80;99.90;;;;;;5099131;28;20050;-60
2024/02/08 08:11:46;;;;;;;8.63;5.80;;;5.80;99.90;;;;;;5092221;28;20051;-60
2024/02/08 08:15:04;;;;;;;7.93;4.57;;;5.70;99.90;;;;;;5091286;28;20110;-61
2024/02/08 08:19:44;;;;;;;8.63;5.30;;;5.70;99.90;;;;;;5094998;28;20048;-59
2024/02/08 08:25:11;;;;;;;6.55;4.72;;;5.80;99.90;;;;;;5095987;28;20052;-62
2024/02/08 08:27:53;;;;;;;8.20;5.35;;;5.70;99.90;;;;;;5100282;28;20043;-60
2024/02/08 08:30:29;;;;;;;7.65;4.78;;;5.70;99.90;;;;;;5103774;28;20540;-59
2024/02/08 08:40:49;;;;;;;7.88;5.10;;;5.70;99.90;;;;;;5088939;28;20067;-60
2024/02/08 08:43:22;;;;;;;5.28;3.95;;;5.70;99.90;;;;;;5103335;28;20051;-59
2024/02/08 08:45:50;;;;;;;8.50;5.10;;;5.70;99.90;;;;;;5080529;28;20093;-60
2024/02/08 08:48:21;;;;;;;6.78;4.60;;;5.80;99.90;;;;;;5101166;28;20048;-60
2024/02/08 08:50:57;;;;;;;9.30;5.47;;;5.80;99.90;;;;;;5103839;28;20158;-59
2024/02/08 08:53:28;;;;;;;8.77;5.18;;;5.70;99.90;;;;;;5092750;28;20065;-60
2024/02/08 08:55:55;;;;;;;6.30;4.57;;;5.80;99.90;;;;;;5096293;28;20048;-60
2024/02/08 08:58:28;;;;;;;8.95;5.05;;;5.70;99.90;;;;;;5102117;28;20096;-60
2024/02/08 09:01:11;;;;;;;6.45;4.35;;;5.80;99.90;;;;;;5092447;28;20058;-60
2024/02/08 09:03:39;;;;;;;7.90;4.88;;;5.80;99.90;;;;;;5084588;28;20044;-63
2024/02/08 09:06:12;;;;;;;7.20;4.25;;;5.70;99.90;;;;;;5098978;28;20296;-60
2024/02/08 09:08:46;;;;;;;7.85;4.63;;;5.70;99.90;;;;;;5091340;28;20048;-60
2024/02/08 09:11:14;;;;;;;6.30;4.35;;;5.70;99.90;;;;;;5096028;28;20131;-62
2024/02/08 09:13:44;;;;;;;7.05;4.28;;;5.70;99.90;;;;;;5098180;28;20078;-60
2024/02/08 09:21:39;;;;;;;7.57;4.25;;;5.80;99.90;;;;;;5095559;28;20092;-61
2024/02/08 09:24:07;;;;;;;5.70;3.92;;;5.80;99.90;;;;;;5096570;28;20040;-59
2024/02/08 09:26:56;;;;;;;6.18;3.75;;;5.80;99.90;;;;;;5098529;28;20047;-59
2024/02/08 09:29:26;;;;;;;6.40;3.63;;;5.80;99.90;;;;;;5101298;28;20043;-60
2024/02/08 09:32:00;;;;;;;4.03;3.15;;;5.90;99.90;;;;;;5096530;28;20087;-62
2024/02/08 09:34:40;;;;;;;5.35;3.85;;;5.90;99.90;;;;;;5103687;28;20044;-59
2024/02/08 09:37:08;;;;;;;4.38;3.25;;;5.90;99.90;;;;;;5100845;28;20528;-60
2024/02/08 09:42:29;;;;;;;6.20;3.65;;;5.90;99.90;;;;;;5098399;28;20404;-59
2024/02/08 09:45:13;;;;;;;4.75;2.97;;;5.90;99.90;;;;;;5101954;28;20059;-59
2024/02/08 09:47:51;;;;;;;5.95;3.00;;;6.00;99.90;;;;;;5100958;28;20053;-59
2024/02/08 09:50:35;;;;;;;5.30;3.05;;;6.00;99.90;;;;;;5094077;28;20048;-60
2024/02/08 09:53:19;;;;;;;3.97;2.83;;;6.00;99.90;;;;;;5081884;28;20048;-59
2024/02/08 09:55:48;;;;;;;4.83;3.30;;;6.00;99.90;;;;;;5091145;28;20048;-59
2024/02/08 09:58:31;;;;;;;4.53;3.00;;;6.10;99.90;;;;;;5084926;28;20790;-59
2024/02/08 10:01:30;;;;;;;4.30;2.63;;;6.10;99.90;;;;;;5102254;28;20058;-59
2024/02/08 10:04:34;;;;;;;5.30;3.33;;;6.10;99.90;;;;;;5102655;28;20067;-58
2024/02/08 10:09:40;;;;;;;6.13;3.30;;;6.20;99.90;;;;;;5099148;28;20043;-59
2024/02/08 10:12:18;;;;;;;4.43;3.13;;;6.20;99.90;;;;;;5096791;28;20043;-59
2024/02/08 10:14:50;;;;;;;6.93;3.65;;;6.30;99.90;;;;;;5095973;28;20500;-59
2024/02/08 10:17:24;;;;;;;4.47;3.08;;;6.30;99.90;;;;;;5095304;28;20489;-59
2024/02/08 10:22:53;;;;;;;4.78;3.45;;;6.30;99.90;;;;;;5096536;28;20708;-59
2024/02/08 10:28:10;;;;;;;5.60;3.60;;;6.40;99.90;;;;;;5095651;28;20138;-59
2024/02/08 10:30:37;;;;;;;7.45;4.03;;;6.40;99.90;;;;;;5100936;28;20130;-59
2024/02/08 10:33:14;;;;;;;5.03;3.28;;;6.40;99.90;;;;;;5100503;28;20910;-59
2024/02/08 10:35:42;;;;;;;5.93;3.60;;;6.40;99.90;;;;;;5099112;27;20063;-60
2024/02/08 10:38:25;;;;;;;5.53;4.07;;;6.40;99.90;;;;;;5099002;28;20108;-59
2024/02/08 10:40:55;;;;;;;7.32;4.03;;;6.50;99.90;;;;;;5093725;28;20568;-59
2024/02/08 10:43:25;;;;;;;5.10;3.40;;;6.50;99.90;;;;;;5103148;28;20050;-59
2024/02/08 10:45:53;;;;;;;5.18;3.60;;;6.50;99.90;;;;;;5097125;28;20048;-59
2024/02/08 10:48:28;;;;;;;4.82;3.80;;;6.50;99.90;;;;;;5100970;28;20093;-58
2024/02/08 10:51:02;;;;;;;6.28;3.42;;;6.50;99.90;;;;;;5105496;28;20047;-58
2024/02/08 10:53:48;;;;;;;8.27;3.33;;;6.60;99.90;;;;;;5100764;28;20082;-58
2024/02/08 10:56:17;;;;;;;6.25;3.28;;;6.60;99.90;;;;;;5101293;28;20048;-59
2024/02/08 11:01:37;;;;;;;5.35;3.15;;;6.60;99.90;;;;;;5107258;28;20097;-59
2024/02/08 11:04:17;;;;;;;3.92;2.58;;;6.60;99.90;;;;;;5082373;28;20131;-58
2024/02/08 11:07:08;;;;;;;5.45;3.28;;;6.60;99.90;;;;;;5098043;28;20165;-58
2024/02/08 11:09:35;;;;;;;4.68;2.35;;;6.60;99.90;;;;;;5101595;28;20050;-58
2024/02/08 11:12:18;;;;;;;3.97;2.28;;;6.60;99.90;;;;;;5101231;28;20488;-58
2024/02/08 11:14:53;;;;;;;2.92;2.15;;;6.60;99.90;;;;;;5100477;28;20071;-59
2024/02/08 11:17:25;;;;;;;7.13;2.53;;;6.70;99.90;;;;;;5077009;28;20070;-63
2024/02/08 11:19:56;;;;;;;3.08;2.42;;;6.70;99.90;;;;;;5089755;28;20423;-59
2024/02/08 11:22:40;;;;;;;3.67;2.08;;;6.70;99.90;;;;;;5103702;28;20043;-59
2024/02/08 11:25:19;;;;;;;4.57;2.53;;;6.70;99.90;;;;;;5102798;28;20047;-59
2024/02/08 11:27:48;;;;;;;3.20;2.13;;;6.80;99.90;;;;;;5099463;28;20405;-59
2024/02/08 11:30:19;;;;;;;2.75;2.22;;;6.80;99.90;;;;;;5104188;28;20608;-60
2024/02/08 11:33:13;;;;;;;3.35;2.22;;;6.90;99.90;;;;;;5098275;28;20048;-58
2024/02/08 11:35:54;;;;;;;3.70;2.42;;;6.90;99.90;;;;;;5097595;28;20138;-58
2024/02/08 11:38:26;;;;;;;3.80;2.40;;;6.90;99.90;;;;;;5098390;28;20040;-59
2024/02/08 11:40:57;;;;;;;6.45;2.20;;;6.90;99.90;;;;;;5097777;28;20756;-59
2024/02/08 11:43:24;;;;;;;4.00;1.85;;;6.90;99.90;;;;;;5097769;28;20056;-58
2024/02/08 11:45:56;;;;;;;2.60;2.05;;;7.00;99.90;;;;;;5096474;28;20137;-59
2024/02/08 11:48:41;;;;;;;4.88;2.10;;;7.00;99.90;;;;;;5100459;28;20108;-59
2024/02/08 11:51:12;;;;;;;2.88;2.28;;;7.00;99.90;;;;;;5102095;28;20101;-58
2024/02/08 11:53:39;;;;;;;3.72;2.38;;;7.00;99.90;;;;;;5107191;28;20044;-61
2024/02/08 11:56:07;;;;;;;2.47;1.45;;;7.10;99.90;;;;;;5103919;28;20096;-59
2024/02/08 11:58:35;;;;;;;2.13;1.67;;;7.10;99.90;;;;;;5107741;28;20043;-59
2024/02/08 12:01:05;;;;;;;4.72;2.10;;;7.20;99.90;;;;;;5096040;28;20535;-59
2024/02/08 12:03:32;;;;;;;7.05;2.30;;;7.20;99.90;;;;;;5105400;28;20040;-59
2024/02/08 12:06:01;;;;;;;3.78;2.15;;;7.30;99.90;;;;;;5100006;28;20056;-59
2024/02/08 12:08:28;;;;;;;3.92;1.98;;;7.40;99.90;;;;;;5098983;28;20065;-59
2024/02/08 12:11:08;;;;;;;14.93;3.28;;;7.40;99.90;;;;;;5102403;28;20050;-59
2024/02/08 12:13:38;;;;;;;15.20;2.60;;;7.50;99.90;;;;;;5096894;28;20076;-59
2024/02/08 12:16:06;;;;;;;4.80;2.17;;;7.60;99.90;;;;;;5102679;28;20393;-59
2024/02/08 12:18:33;;;;;;;6.35;2.53;;;7.70;99.90;;;;;;5099585;28;20052;-59
2024/02/08 12:21:01;;;;;;;4.63;2.33;;;7.80;99.90;;;;;;5100460;28;20062;-59
2024/02/08 12:23:31;;;;;;;5.10;2.05;;;7.90;99.90;;;;;;5104317;28;20044;-60
2024/02/08 12:26:03;;;;;;;3.55;2.17;;;8.00;99.90;;;;;;5101267;28;20052;-59
2024/02/08 12:28:31;;;;;;;4.90;1.80;;;8.00;99.90;;;;;;5100547;28;20575;-60
2024/02/08 12:31:01;;;;;;;3.47;1.92;;;8.10;99.90;;;;;;5098277;28;20083;-59
2024/02/08 12:33:29;;;;;;;7.03;2.17;;;8.20;99.90;;;;;;5096998;28;20508;-60
2024/02/08 12:35:58;;;;;;;3.42;1.80;;;8.30;99.90;;;;;;5104449;28;20055;-59
2024/02/08 12:38:30;;;;;;;4.60;2.13;;;8.40;99.90;;;;;;5092657;28;20042;-59
2024/02/08 12:41:01;;;;;;;3.05;1.88;;;8.50;99.90;;;;;;5097274;28;20059;-59
2024/02/08 12:43:28;;;;;;;4.55;2.50;;;8.50;99.90;;;;;;5095813;28;20066;-59
2024/02/08 12:45:56;;;;;;;4.07;2.35;;;8.60;99.90;;;;;;5100204;28;20496;-60
2024/02/08 12:48:23;;;;;;;3.95;2.25;;;8.70;99.90;;;;;;5098258;28;20044;-60
2024/02/08 12:50:54;;;;;;;3.25;2.53;;;8.80;99.90;;;;;;5104404;28;20048;-61
2024/02/08 12:53:22;;;;;;;9.18;3.17;;;8.90;99.90;;;;;;5096612;28;20050;-61
2024/02/08 12:55:49;;;;;;;7.13;3.20;;;9.00;99.90;;;;;;5097624;28;20062;-63
2024/02/08 12:58:16;;;;;;;3.97;1.58;;;9.20;99.90;;;;;;5099196;28;20043;-60
2024/02/08 13:00:55;;;;;;;2.88;1.55;;;9.40;99.90;;;;;;5097597;28;20043;-60
2024/02/08 13:03:26;;;;;;;3.83;1.25;;;9.80;99.90;;;;;;5097555;28;20127;-60
2024/02/08 13:05:53;;;;;;;1.30;0.75;;;10.10;99.90;;;;;;5094071;28;20589;-60
2024/02/08 13:08:22;;;;;;;2.53;0.88;;;10.50;99.90;;;;;;5095512;28;20380;-60
2024/02/08 13:10:54;;;;;;;1.45;0.98;;;10.70;99.90;;;;;;5094611;28;20047;-60
2024/02/08 13:13:25;;;;;;;3.85;1.23;;;10.80;99.90;;;;;;5096501;28;20059;-60
2024/02/08 13:15:58;;;;;;;2.95;0.70;;;10.90;99.90;;;;;;5093986;28;20850;-60
2024/02/08 13:18:29;;;;;;;2.60;0.52;;;11.10;99.90;;;;;;5100785;28;20066;-60
2024/02/08 13:21:00;;;;;;;1.27;0.50;;;11.20;99.90;;;;;;5092474;28;20076;-60
2024/02/08 13:23:27;;;;;;;2.42;1.63;;;11.40;99.90;;;;;;5091722;28;20044;-59
2024/02/08 13:25:54;;;;;;;2.55;0.57;;;11.50;99.90;;;;;;5093738;28;20043;-60
2024/02/08 13:28:24;;;;;;;0.63;0.60;;;11.60;99.90;;;;;;5092963;28;20036;-60
2024/02/08 13:30:56;;;;;;;0.45;0.30;;;11.70;99.90;;;;;;5096634;28;20266;-59
2024/02/08 13:33:23;;;;;;;1.13;0.40;;;11.70;99.90;;;;;;5090178;28;20044;-59
2024/02/08 13:35:53;;;;;;;0.73;0.40;;;11.80;99.90;;;;;;5087740;28;20095;-60
2024/02/08 13:38:25;;;;;;;1.80;0.90;;;11.90;99.90;;;;;;5101164;28;20059;-59
2024/02/08 13:40:58;;;;;;;1.17;0.52;;;12.00;99.90;;;;;;5101360;27;20261;-60
2024/02/08 13:43:30;;;;;;;1.05;0.52;;;12.10;99.90;;;;;;5087582;28;20044;-60
2024/02/08 13:45:57;;;;;;;1.25;0.57;;;12.20;99.90;;;;;;5096250;28;20900;-60
2024/02/08 13:48:29;;;;;;;2.13;0.50;;;12.20;99.90;;;;;;5094051;28;20067;-59
2024/02/08 13:50:58;;;;;;;3.65;0.60;;;12.30;99.90;;;;;;5094696;28;20062;-59
2024/02/08 13:53:28;;;;;;;3.58;0.93;;;12.30;99.90;;;;;;5090289;28;20047;-60
2024/02/08 13:55:55;;;;;;;3.17;0.60;;;12.40;99.90;;;;;;5097345;28;20044;-60
2024/02/08 13:58:25;;;;;;;4.70;1.17;;;12.40;99.90;;;;;;5097430;28;20044;-59
2024/02/08 14:00:57;;;;;;;4.38;0.73;;;12.50;99.90;;;;;;5097066;28;20074;-58
2024/02/08 14:03:29;;;;;;;1.75;0.45;;;12.50;99.90;;;;;;5104371;28;20077;-58
2024/02/08 14:05:59;;;;;;;3.40;0.82;;;12.50;99.90;;;;;;5097218;28;20051;-60
2024/02/08 14:08:27;;;;;;;2.30;0.50;;;12.50;99.90;;;;;;5103941;28;20046;-61
2024/02/08 14:10:56;;;;;;;2.17;0.77;;;12.50;99.90;;;;;;5097623;28;20051;-59
2024/02/08 14:13:29;;;;;;;2.55;1.00;;;12.50;99.90;;;;;;5093471;28;20089;-60
2024/02/08 14:16:05;;;;;;;1.70;0.63;;;12.50;99.90;;;;;;5094635;28;20133;-60
2024/02/08 14:18:34;;;;;;;5.93;0.60;;;12.50;99.90;;;;;;5103039;28;20043;-60
2024/02/08 14:21:08;;;;;;;5.43;1.00;;;12.50;99.90;;;;;;5096735;28;20047;-60
2024/02/08 14:23:38;;;;;;;5.65;0.80;;;12.50;99.90;;;;;;5096185;28;20047;-60
2024/02/08 14:26:21;;;;;;;2.75;0.77;;;12.40;99.90;;;;;;5097945;28;20473;-61
2024/02/08 14:28:49;;;;;;;5.20;1.00;;;12.40;99.90;;;;;;5097533;28;20092;-61
2024/02/08 14:31:16;;;;;;;6.15;1.55;;;12.40;99.90;;;;;;5096491;28;20132;-60
2024/02/08 14:33:46;;;;;;;4.05;1.30;;;12.40;99.90;;;;;;5103192;28;20050;-60
2024/02/08 14:36:14;;;;;;;3.80;1.25;;;12.40;99.90;;;;;;5101019;28;20138;-60
2024/02/08 14:38:56;;;;;;;4.85;1.23;;;12.30;99.90;;;;;;5090516;28;20171;-60
2024/02/08 14:41:26;;;;;;;6.07;1.10;;;12.40;99.90;;;;;;5093651;28;20101;-60
2024/02/08 14:43:54;;;;;;;5.20;0.90;;;12.30;99.90;;;;;;5087536;28;20536;-60
2024/02/08 14:46:25;;;;;;;8.70;1.63;;;12.30;99.90;;;;;;5096109;28;20113;-60
2024/02/08 14:48:53;;;;;;;5.63;1.50;;;12.30;99.90;;;;;;5102511;28;20088;-60
2024/02/08 14:53:54;;;;;;;7.45;1.40;;;12.30;99.90;;;;;;5094031;28;20048;-61
2024/02/08 14:56:21;;;;;;;5.60;1.15;;;12.30;99.90;;;;;;5100159;28;20104;-60
2024/02/08 14:59:09;;;;;;;2.83;0.85;;;12.20;99.90;;;;;;5097083;28;20427;-60
2024/02/08 15:01:39;;;;;;;3.70;1.10;;;12.30;99.90;;;;;;5096983;28;20048;-60
2024/02/08 15:04:16;;;;;;;1.83;0.88;;;12.30;99.90;;;;;;5094481;28;20035;-60
2024/02/08 15:14:45;;;;;;;8.80;1.50;;;12.20;99.90;;;;;;5095520;28;20592;-60
2024/02/08 15:17:18;;;;;;;2.80;0.93;;;12.20;99.90;;;;;;5092962;28;20109;-60
2024/02/08 15:19:45;;;;;;;4.47;1.10;;;12.20;99.90;;;;;;5098831;28;20055;-60
2024/02/08 15:22:46;;;;;;;7.78;1.02;;;12.20;99.90;;;;;;5099323;28;20389;-60
2024/02/08 15:25:06;;;;;;;5.32;1.42;;;12.20;99.90;;;;;;5100737;28;20104;-60
2024/02/08 15:27:47;;;;;;;8.90;2.03;;;12.10;99.90;;;;;;5099015;28;20044;-60
2024/02/08 15:30:19;;;;;;;13.60;3.53;;;12.10;99.90;;;;;;5104802;28;20407;-60
2024/02/08 15:32:46;;;;;;;5.10;1.10;;;12.10;99.90;;;;;;5097152;28;20051;-60
2024/02/08 15:35:23;;;;;;;6.63;1.20;;;12.10;99.90;;;;;;5097592;28;20055;-59